sensor_id;sensor_type;location;lat;lon;timestamp;pressure;altitude;pressure_sealevel;temperature;humidity
35989;BME280;22064;42.672;23.282;2022-10-16T00:01:19;95283.66;;;7.05;100.00
35989;BME280;22064;42.672;23.282;2022-10-16T00:03:46;95287.81;;;7.06;100.00
35989;BME280;22064;42.672;23.282;2022-10-16T00:06:14;95291.22;;;7.00;100.00
35989;BME280;22064;42.672;23.282;2022-10-16T00:08:40;95293.81;;;6.93;100.00
35989;BME280;22064;42.672;23.282;2022-10-16T00:11:14;95297.41;;;6.92;100.00
35989;BME280;22064;42.672;23.282;2022-10-16T00:13:41;95286.47;;;6.83;100.00
35989;BME280;22064;42.672;23.282;2022-10-16T00:16:08;95298.81;;;6.88;100.00
35989;BME280;22064;42.672;23.282;2022-10-16T00:18:34;95300.41;;;6.76;100.00
35989;BME280;22064;42.672;23.282;2022-10-16T00:21:09;95297.84;;;6.62;100.00
35989;BME280;22064;42.672;23.282;2022-10-16T00:23:35;95305.78;;;6.81;100.00
35989;BME280;22064;42.672;23.282;2022-10-16T00:26:07;95301.03;;;6.64;100.00
35989;BME280;22064;42.672;23.282;2022-10-16T00:28:33;95301.22;;;6.63;100.00
35989;BME280;22064;42.672;23.282;2022-10-16T00:31:06;95310.00;;;6.68;100.00
35989;BME280;22064;42.672;23.282;2022-10-16T00:33:32;95319.13;;;6.78;100.00
35989;BME280;22064;42.672;23.282;2022-10-16T00:35:59;95314.97;;;6.77;100.00
35989;BME280;22064;42.672;23.282;2022-10-16T00:38:25;95319.34;;;6.76;100.00
35989;BME280;22064;42.672;23.282;2022-10-16T00:40:51;95322.31;;;6.66;100.00
35989;BME280;22064;42.672;23.282;2022-10-16T00:46:37;95308.38;;;6.81;100.00
35989;BME280;22064;42.672;23.282;2022-10-16T00:49:15;95302.00;;;6.83;100.00
35989;BME280;22064;42.672;23.282;2022-10-16T00:51:51;95301.22;;;6.89;100.00
35989;BME280;22064;42.672;23.282;2022-10-16T00:54:28;95309.56;;;6.85;100.00
35989;BME280;22064;42.672;23.282;2022-10-16T00:56:55;95298.00;;;6.87;100.00
35989;BME280;22064;42.672;23.282;2022-10-16T00:59:25;95302.19;;;6.95;100.00
35989;BME280;22064;42.672;23.282;2022-10-16T01:01:52;95307.78;;;6.92;100.00
35989;BME280;22064;42.672;23.282;2022-10-16T01:04:18;95304.78;;;6.82;100.00
35989;BME280;22064;42.672;23.282;2022-10-16T01:12:05;95312.34;;;6.90;100.00
35989;BME280;22064;42.672;23.282;2022-10-16T01:14:53;95321.94;;;6.83;100.00
35989;BME280;22064;42.672;23.282;2022-10-16T01:25:49;95311.59;;;6.76;100.00
35989;BME280;22064;42.672;23.282;2022-10-16T01:28:18;95298.84;;;6.75;100.00
35989;BME280;22064;42.672;23.282;2022-10-16T01:30:47;95297.81;;;6.76;100.00
35989;BME280;22064;42.672;23.282;2022-10-16T01:33:47;95305.19;;;6.79;100.00
35989;BME280;22064;42.672;23.282;2022-10-16T01:36:13;95305.59;;;6.76;100.00
35989;BME280;22064;42.672;23.282;2022-10-16T01:38:41;95307.63;;;6.67;100.00
35989;BME280;22064;42.672;23.282;2022-10-16T01:41:16;95309.41;;;6.40;100.00
35989;BME280;22064;42.672;23.282;2022-10-16T01:43:49;95314.97;;;6.23;100.00
35989;BME280;22064;42.672;23.282;2022-10-16T01:46:20;95307.97;;;6.04;100.00
35989;BME280;22064;42.672;23.282;2022-10-16T01:48:48;95309.50;;;5.85;100.00
35989;BME280;22064;42.672;23.282;2022-10-16T01:51:15;95316.03;;;5.74;100.00
35989;BME280;22064;42.672;23.282;2022-10-16T01:53:48;95321.00;;;5.69;100.00
35989;BME280;22064;42.672;23.282;2022-10-16T01:56:16;95318.78;;;5.66;100.00
35989;BME280;22064;42.672;23.282;2022-10-16T01:58:50;95319.16;;;5.56;100.00
35989;BME280;22064;42.672;23.282;2022-10-16T02:01:18;95320.59;;;5.66;100.00
35989;BME280;22064;42.672;23.282;2022-10-16T02:03:46;95325.75;;;5.66;100.00
35989;BME280;22064;42.672;23.282;2022-10-16T02:06:14;95322.75;;;5.62;100.00
35989;BME280;22064;42.672;23.282;2022-10-16T02:08:40;95326.94;;;5.63;100.00
35989;BME280;22064;42.672;23.282;2022-10-16T02:11:10;95320.94;;;5.56;100.00
35989;BME280;22064;42.672;23.282;2022-10-16T02:13:48;95323.13;;;5.52;100.00
35989;BME280;22064;42.672;23.282;2022-10-16T02:16:16;95330.88;;;5.52;100.00
35989;BME280;22064;42.672;23.282;2022-10-16T02:18:43;95338.41;;;5.54;100.00
35989;BME280;22064;42.672;23.282;2022-10-16T02:21:28;95348.16;;;5.52;100.00
35989;BME280;22064;42.672;23.282;2022-10-16T02:26:44;95342.78;;;5.47;100.00
35989;BME280;22064;42.672;23.282;2022-10-16T02:29:17;95349.91;;;5.45;100.00
35989;BME280;22064;42.672;23.282;2022-10-16T02:31:47;95350.78;;;5.59;100.00
35989;BME280;22064;42.672;23.282;2022-10-16T02:34:18;95338.66;;;5.59;100.00
35989;BME280;22064;42.672;23.282;2022-10-16T02:36:44;95341.78;;;5.48;100.00
35989;BME280;22064;42.672;23.282;2022-10-16T02:39:11;95332.81;;;5.44;100.00
35989;BME280;22064;42.672;23.282;2022-10-16T02:41:37;95341.97;;;5.46;100.00
35989;BME280;22064;42.672;23.282;2022-10-16T02:44:03;95344.97;;;5.50;100.00
35989;BME280;22064;42.672;23.282;2022-10-16T02:46:29;95352.50;;;5.45;100.00
35989;BME280;22064;42.672;23.282;2022-10-16T02:48:54;95349.88;;;5.38;100.00
35989;BME280;22064;42.672;23.282;2022-10-16T02:51:20;95349.06;;;5.31;100.00
35989;BME280;22064;42.672;23.282;2022-10-16T02:53:45;95362.16;;;5.29;100.00
35989;BME280;22064;42.672;23.282;2022-10-16T02:56:11;95356.16;;;5.22;100.00
35989;BME280;22064;42.672;23.282;2022-10-16T02:58:37;95351.75;;;5.16;100.00
35989;BME280;22064;42.672;23.282;2022-10-16T03:01:02;95358.72;;;5.16;100.00
35989;BME280;22064;42.672;23.282;2022-10-16T03:03:28;95361.25;;;5.09;100.00
35989;BME280;22064;42.672;23.282;2022-10-16T03:05:53;95356.22;;;5.01;100.00
35989;BME280;22064;42.672;23.282;2022-10-16T03:08:19;95356.88;;;5.09;100.00
35989;BME280;22064;42.672;23.282;2022-10-16T03:10:49;95373.16;;;5.10;100.00
35989;BME280;22064;42.672;23.282;2022-10-16T03:13:15;95359.84;;;5.06;100.00
35989;BME280;22064;42.672;23.282;2022-10-16T03:15:40;95368.38;;;5.07;100.00
35989;BME280;22064;42.672;23.282;2022-10-16T03:18:06;95360.72;;;5.20;100.00
35989;BME280;22064;42.672;23.282;2022-10-16T03:20:32;95357.72;;;5.17;100.00
35989;BME280;22064;42.672;23.282;2022-10-16T03:22:58;95365.41;;;5.10;100.00
35989;BME280;22064;42.672;23.282;2022-10-16T03:25:23;95379.56;;;5.14;100.00
35989;BME280;22064;42.672;23.282;2022-10-16T03:27:49;95374.94;;;5.09;100.00
35989;BME280;22064;42.672;23.282;2022-10-16T03:30:15;95383.16;;;5.20;100.00
35989;BME280;22064;42.672;23.282;2022-10-16T03:32:43;95374.41;;;5.14;100.00
35989;BME280;22064;42.672;23.282;2022-10-16T03:35:08;95383.13;;;5.13;100.00
35989;BME280;22064;42.672;23.282;2022-10-16T03:37:34;95388.47;;;5.12;100.00
35989;BME280;22064;42.672;23.282;2022-10-16T03:40:00;95380.53;;;5.13;100.00
35989;BME280;22064;42.672;23.282;2022-10-16T03:42:26;95382.97;;;5.21;100.00
35989;BME280;22064;42.672;23.282;2022-10-16T03:44:51;95370.88;;;5.28;100.00
35989;BME280;22064;42.672;23.282;2022-10-16T03:47:17;95370.88;;;5.28;100.00
35989;BME280;22064;42.672;23.282;2022-10-16T03:49:47;95372.94;;;5.40;100.00
35989;BME280;22064;42.672;23.282;2022-10-16T03:52:13;95375.41;;;5.54;100.00
35989;BME280;22064;42.672;23.282;2022-10-16T03:54:38;95365.88;;;5.55;100.00
35989;BME280;22064;42.672;23.282;2022-10-16T03:57:04;95357.13;;;5.56;100.00
35989;BME280;22064;42.672;23.282;2022-10-16T03:59:30;95364.47;;;5.52;100.00
35989;BME280;22064;42.672;23.282;2022-10-16T04:01:55;95361.38;;;5.36;100.00
35989;BME280;22064;42.672;23.282;2022-10-16T04:04:21;95360.50;;;5.15;100.00
35989;BME280;22064;42.672;23.282;2022-10-16T04:06:46;95346.88;;;4.93;100.00
35989;BME280;22064;42.672;23.282;2022-10-16T04:09:12;95370.47;;;4.90;100.00
35989;BME280;22064;42.672;23.282;2022-10-16T04:11:37;95371.75;;;4.79;100.00
35989;BME280;22064;42.672;23.282;2022-10-16T04:14:04;95368.72;;;4.69;100.00
35989;BME280;22064;42.672;23.282;2022-10-16T04:16:29;95366.66;;;4.58;100.00
35989;BME280;22064;42.672;23.282;2022-10-16T04:18:55;95364.81;;;4.52;100.00
35989;BME280;22064;42.672;23.282;2022-10-16T04:21:21;95375.16;;;4.52;100.00
35989;BME280;22064;42.672;23.282;2022-10-16T04:23:46;95371.56;;;4.53;100.00
35989;BME280;22064;42.672;23.282;2022-10-16T04:26:12;95376.22;;;4.64;100.00
35989;BME280;22064;42.672;23.282;2022-10-16T04:28:38;95381.25;;;4.72;100.00
35989;BME280;22064;42.672;23.282;2022-10-16T04:31:04;95372.50;;;4.73;100.00
35989;BME280;22064;42.672;23.282;2022-10-16T04:33:30;95385.34;;;4.88;100.00
35989;BME280;22064;42.672;23.282;2022-10-16T04:35:59;95385.00;;;4.98;100.00
35989;BME280;22064;42.672;23.282;2022-10-16T04:38:25;95379.75;;;4.84;100.00
35989;BME280;22064;42.672;23.282;2022-10-16T04:40:50;95365.41;;;4.75;100.00
35989;BME280;22064;42.672;23.282;2022-10-16T04:43:16;95382.84;;;4.73;100.00
35989;BME280;22064;42.672;23.282;2022-10-16T04:45:42;95384.44;;;4.74;100.00
35989;BME280;22064;42.672;23.282;2022-10-16T04:48:07;95384.66;;;4.79;100.00
35989;BME280;22064;42.672;23.282;2022-10-16T04:50:33;95396.06;;;4.92;100.00
35989;BME280;22064;42.672;23.282;2022-10-16T04:53:05;95388.56;;;4.97;100.00
35989;BME280;22064;42.672;23.282;2022-10-16T04:55:31;95400.72;;;5.03;100.00
35989;BME280;22064;42.672;23.282;2022-10-16T04:57:57;95405.75;;;5.11;100.00
35989;BME280;22064;42.672;23.282;2022-10-16T05:00:22;95399.41;;;5.14;100.00
35989;BME280;22064;42.672;23.282;2022-10-16T05:02:50;95417.00;;;5.31;100.00
35989;BME280;22064;42.672;23.282;2022-10-16T05:05:15;95416.94;;;5.60;100.00
35989;BME280;22064;42.672;23.282;2022-10-16T05:07:42;95407.66;;;5.72;100.00
35989;BME280;22064;42.672;23.282;2022-10-16T05:10:07;95420.47;;;5.87;100.00
35989;BME280;22064;42.672;23.282;2022-10-16T05:12:33;95422.50;;;5.98;100.00
35989;BME280;22064;42.672;23.282;2022-10-16T05:14:59;95419.75;;;6.06;100.00
35989;BME280;22064;42.672;23.282;2022-10-16T05:17:25;95420.53;;;6.00;100.00
35989;BME280;22064;42.672;23.282;2022-10-16T05:19:51;95421.31;;;6.00;100.00
35989;BME280;22064;42.672;23.282;2022-10-16T05:22:17;95413.81;;;6.12;100.00
35989;BME280;22064;42.672;23.282;2022-10-16T05:24:43;95423.00;;;6.35;100.00
35989;BME280;22064;42.672;23.282;2022-10-16T05:27:10;95432.59;;;6.47;100.00
35989;BME280;22064;42.672;23.282;2022-10-16T05:29:36;95432.63;;;6.61;100.00
35989;BME280;22064;42.672;23.282;2022-10-16T05:32:02;95432.41;;;6.56;100.00
35989;BME280;22064;42.672;23.282;2022-10-16T05:34:27;95429.03;;;6.68;100.00
35989;BME280;22064;42.672;23.282;2022-10-16T05:36:53;95432.22;;;6.77;100.00
35989;BME280;22064;42.672;23.282;2022-10-16T05:39:19;95431.84;;;6.87;100.00
35989;BME280;22064;42.672;23.282;2022-10-16T05:41:45;95428.66;;;6.98;100.00
35989;BME280;22064;42.672;23.282;2022-10-16T05:44:10;95433.22;;;7.09;100.00
35989;BME280;22064;42.672;23.282;2022-10-16T05:46:36;95428.63;;;6.78;100.00
35989;BME280;22064;42.672;23.282;2022-10-16T05:49:02;95443.53;;;6.50;100.00
35989;BME280;22064;42.672;23.282;2022-10-16T05:51:28;95438.91;;;6.32;100.00
35989;BME280;22064;42.672;23.282;2022-10-16T05:53:53;95445.06;;;6.17;100.00
35989;BME280;22064;42.672;23.282;2022-10-16T05:56:19;95439.69;;;6.19;100.00
35989;BME280;22064;42.672;23.282;2022-10-16T05:58:45;95445.84;;;6.18;100.00
35989;BME280;22064;42.672;23.282;2022-10-16T06:01:16;95458.03;;;6.31;100.00
35989;BME280;22064;42.672;23.282;2022-10-16T06:03:42;95465.63;;;6.39;100.00
35989;BME280;22064;42.672;23.282;2022-10-16T06:06:19;95462.41;;;6.37;100.00
35989;BME280;22064;42.672;23.282;2022-10-16T06:08:46;95472.81;;;6.57;100.00
35989;BME280;22064;42.672;23.282;2022-10-16T06:11:14;95474.81;;;6.55;100.00
35989;BME280;22064;42.672;23.282;2022-10-16T06:13:40;95471.63;;;6.59;100.00
35989;BME280;22064;42.672;23.282;2022-10-16T06:16:11;95469.25;;;6.71;100.00
35989;BME280;22064;42.672;23.282;2022-10-16T06:18:38;95468.06;;;6.74;100.00
35989;BME280;22064;42.672;23.282;2022-10-16T06:21:12;95478.25;;;6.95;100.00
35989;BME280;22064;42.672;23.282;2022-10-16T06:23:39;95484.03;;;7.24;100.00
35989;BME280;22064;42.672;23.282;2022-10-16T06:26:10;95474.66;;;7.36;100.00
35989;BME280;22064;42.672;23.282;2022-10-16T06:28:36;95482.38;;;7.62;100.00
35989;BME280;22064;42.672;23.282;2022-10-16T06:31:03;95481.75;;;7.80;100.00
35989;BME280;22064;42.672;23.282;2022-10-16T06:33:30;95482.16;;;7.84;100.00
35989;BME280;22064;42.672;23.282;2022-10-16T06:36:03;95486.31;;;7.98;100.00
35989;BME280;22064;42.672;23.282;2022-10-16T06:38:30;95493.47;;;8.03;100.00
35989;BME280;22064;42.672;23.282;2022-10-16T06:40:55;95480.44;;;8.23;100.00
35989;BME280;22064;42.672;23.282;2022-10-16T06:43:21;95489.34;;;8.40;100.00
35989;BME280;22064;42.672;23.282;2022-10-16T06:45:54;95499.81;;;8.65;100.00
35989;BME280;22064;42.672;23.282;2022-10-16T06:48:20;95501.22;;;8.61;100.00
35989;BME280;22064;42.672;23.282;2022-10-16T06:51:10;95505.97;;;8.71;100.00
35989;BME280;22064;42.672;23.282;2022-10-16T06:53:39;95514.19;;;8.68;100.00
35989;BME280;22064;42.672;23.282;2022-10-16T06:56:12;95513.81;;;8.64;100.00
35989;BME280;22064;42.672;23.282;2022-10-16T06:58:39;95520.38;;;8.67;100.00
35989;BME280;22064;42.672;23.282;2022-10-16T07:01:05;95524.91;;;8.78;100.00
35989;BME280;22064;42.672;23.282;2022-10-16T07:03:32;95522.03;;;8.93;100.00
35989;BME280;22064;42.672;23.282;2022-10-16T07:06:02;95522.19;;;8.98;100.00
35989;BME280;22064;42.672;23.282;2022-10-16T07:08:34;95513.03;;;8.95;100.00
35989;BME280;22064;42.672;23.282;2022-10-16T07:11:05;95522.44;;;9.21;100.00
35989;BME280;22064;42.672;23.282;2022-10-16T07:13:38;95514.69;;;9.40;100.00
35989;BME280;22064;42.672;23.282;2022-10-16T07:16:08;95523.03;;;9.48;100.00
35989;BME280;22064;42.672;23.282;2022-10-16T07:18:34;95533.84;;;9.45;100.00
35989;BME280;22064;42.672;23.282;2022-10-16T07:21:04;95538.78;;;9.54;100.00
35989;BME280;22064;42.672;23.282;2022-10-16T07:23:30;95534.50;;;9.66;100.00
35989;BME280;22064;42.672;23.282;2022-10-16T07:25:56;95524.31;;;9.83;100.00
35989;BME280;22064;42.672;23.282;2022-10-16T07:28:21;95527.56;;;9.97;100.00
35989;BME280;22064;42.672;23.282;2022-10-16T07:30:48;95535.34;;;10.03;100.00
35989;BME280;22064;42.672;23.282;2022-10-16T07:33:14;95544.00;;;10.15;100.00
35989;BME280;22064;42.672;23.282;2022-10-16T07:35:53;95544.72;;;10.23;100.00
35989;BME280;22064;42.672;23.282;2022-10-16T07:38:19;95542.25;;;10.34;100.00
35989;BME280;22064;42.672;23.282;2022-10-16T07:40:45;95543.09;;;10.47;100.00
35989;BME280;22064;42.672;23.282;2022-10-16T07:43:11;95534.13;;;10.43;100.00
35989;BME280;22064;42.672;23.282;2022-10-16T07:45:37;95527.75;;;10.38;100.00
35989;BME280;22064;42.672;23.282;2022-10-16T07:48:03;95539.31;;;10.43;100.00
35989;BME280;22064;42.672;23.282;2022-10-16T07:50:28;95540.31;;;10.60;100.00
35989;BME280;22064;42.672;23.282;2022-10-16T07:52:54;95532.19;;;10.68;100.00
35989;BME280;22064;42.672;23.282;2022-10-16T07:55:19;95531.59;;;10.84;100.00
35989;BME280;22064;42.672;23.282;2022-10-16T07:57:45;95542.28;;;10.95;100.00
35989;BME280;22064;42.672;23.282;2022-10-16T08:00:11;95554.19;;;11.02;100.00
35989;BME280;22064;42.672;23.282;2022-10-16T08:02:40;95555.88;;;10.97;100.00
35989;BME280;22064;42.672;23.282;2022-10-16T08:05:06;95553.31;;;11.08;100.00
35989;BME280;22064;42.672;23.282;2022-10-16T08:07:32;95550.97;;;11.19;100.00
35989;BME280;22064;42.672;23.282;2022-10-16T08:09:58;95547.53;;;11.18;100.00
35989;BME280;22064;42.672;23.282;2022-10-16T08:12:26;95558.66;;;11.14;100.00
35989;BME280;22064;42.672;23.282;2022-10-16T08:14:52;95541.44;;;11.13;100.00
35989;BME280;22064;42.672;23.282;2022-10-16T08:17:18;95536.34;;;11.18;100.00
35989;BME280;22064;42.672;23.282;2022-10-16T08:19:47;95541.13;;;11.32;100.00
35989;BME280;22064;42.672;23.282;2022-10-16T08:22:15;95542.63;;;11.40;100.00
35989;BME280;22064;42.672;23.282;2022-10-16T08:24:41;95549.22;;;11.54;100.00
35989;BME280;22064;42.672;23.282;2022-10-16T08:27:07;95547.72;;;11.59;100.00
35989;BME280;22064;42.672;23.282;2022-10-16T08:29:34;95548.75;;;11.57;100.00
35989;BME280;22064;42.672;23.282;2022-10-16T08:31:59;95549.81;;;11.68;100.00
35989;BME280;22064;42.672;23.282;2022-10-16T08:34:25;95539.69;;;11.84;100.00
35989;BME280;22064;42.672;23.282;2022-10-16T08:36:53;95544.13;;;11.83;100.00
35989;BME280;22064;42.672;23.282;2022-10-16T08:39:18;95545.97;;;11.94;100.00
35989;BME280;22064;42.672;23.282;2022-10-16T08:44:30;95535.72;;;12.28;100.00
35989;BME280;22064;42.672;23.282;2022-10-16T08:49:27;95542.50;;;12.41;100.00
35989;BME280;22064;42.672;23.282;2022-10-16T08:51:53;95528.50;;;12.59;100.00
35989;BME280;22064;42.672;23.282;2022-10-16T08:54:42;95552.66;;;12.66;100.00
35989;BME280;22064;42.672;23.282;2022-10-16T08:57:26;95546.31;;;12.62;100.00
35989;BME280;22064;42.672;23.282;2022-10-16T08:59:53;95552.66;;;12.66;100.00
35989;BME280;22064;42.672;23.282;2022-10-16T09:05:21;95544.97;;;12.88;100.00
35989;BME280;22064;42.672;23.282;2022-10-16T09:13:51;95550.28;;;13.22;100.00
35989;BME280;22064;42.672;23.282;2022-10-16T09:16:27;95549.84;;;13.25;100.00
35989;BME280;22064;42.672;23.282;2022-10-16T09:19:19;95535.41;;;13.39;100.00
35989;BME280;22064;42.672;23.282;2022-10-16T09:21:46;95537.09;;;13.45;100.00
35989;BME280;22064;42.672;23.282;2022-10-16T09:24:19;95546.13;;;13.54;100.00
35989;BME280;22064;42.672;23.282;2022-10-16T09:26:46;95536.38;;;13.50;100.00
35989;BME280;22064;42.672;23.282;2022-10-16T09:29:13;95541.84;;;13.48;100.00
35989;BME280;22064;42.672;23.282;2022-10-16T09:31:39;95545.50;;;13.47;100.00
35989;BME280;22064;42.672;23.282;2022-10-16T09:34:06;95532.97;;;13.49;100.00
35989;BME280;22064;42.672;23.282;2022-10-16T09:36:36;95542.88;;;13.64;100.00
35989;BME280;22064;42.672;23.282;2022-10-16T09:39:06;95543.22;;;13.68;99.59
35989;BME280;22064;42.672;23.282;2022-10-16T09:41:34;95534.94;;;13.76;95.85
35989;BME280;22064;42.672;23.282;2022-10-16T09:44:02;95539.06;;;13.89;92.85
35989;BME280;22064;42.672;23.282;2022-10-16T09:46:33;95546.34;;;14.03;94.80
35989;BME280;22064;42.672;23.282;2022-10-16T09:49:02;95530.75;;;14.14;92.79
35989;BME280;22064;42.672;23.282;2022-10-16T09:51:36;95511.72;;;14.18;87.80
35989;BME280;22064;42.672;23.282;2022-10-16T09:54:15;95526.38;;;14.41;85.05
35989;BME280;22064;42.672;23.282;2022-10-16T09:56:41;95524.56;;;14.64;84.24
35989;BME280;22064;42.672;23.282;2022-10-16T09:59:16;95527.56;;;14.72;78.72
35989;BME280;22064;42.672;23.282;2022-10-16T10:01:50;95522.28;;;14.67;79.83
35989;BME280;22064;42.672;23.282;2022-10-16T10:04:21;95522.50;;;14.66;78.73
35989;BME280;22064;42.672;23.282;2022-10-16T10:06:49;95517.75;;;14.63;80.19
35989;BME280;22064;42.672;23.282;2022-10-16T10:11:55;95518.66;;;14.51;80.05
35989;BME280;22064;42.672;23.282;2022-10-16T10:16:52;95521.44;;;14.62;77.26
35989;BME280;22064;42.672;23.282;2022-10-16T10:19:21;95514.72;;;14.71;72.31
35989;BME280;22064;42.672;23.282;2022-10-16T10:21:48;95516.09;;;14.78;70.69
35989;BME280;22064;42.672;23.282;2022-10-16T10:24:16;95510.06;;;14.78;72.12
35989;BME280;22064;42.672;23.282;2022-10-16T10:26:57;95513.34;;;14.90;74.03
35989;BME280;22064;42.672;23.282;2022-10-16T10:30:00;95505.91;;;15.09;71.14
35989;BME280;22064;42.672;23.282;2022-10-16T10:32:41;95507.78;;;15.14;71.02
35989;BME280;22064;42.672;23.282;2022-10-16T10:40:51;95494.78;;;15.29;59.23
35989;BME280;22064;42.672;23.282;2022-10-16T10:46:09;95489.72;;;15.50;58.51
35989;BME280;22064;42.672;23.282;2022-10-16T11:07:35;95468.94;;;15.85;54.61
35989;BME280;22064;42.672;23.282;2022-10-16T11:10:09;95467.97;;;15.97;53.08
35989;BME280;22064;42.672;23.282;2022-10-16T11:12:51;95466.22;;;16.12;52.60
35989;BME280;22064;42.672;23.282;2022-10-16T11:15:28;95464.41;;;16.18;51.42
35989;BME280;22064;42.672;23.282;2022-10-16T11:18:13;95464.72;;;16.37;52.69
35989;BME280;22064;42.672;23.282;2022-10-16T11:20:47;95461.56;;;16.35;49.66
35989;BME280;22064;42.672;23.282;2022-10-16T11:23:30;95459.78;;;16.46;47.98
35989;BME280;22064;42.672;23.282;2022-10-16T11:26:04;95455.06;;;16.63;46.83
35989;BME280;22064;42.672;23.282;2022-10-16T11:28:35;95431.38;;;16.43;48.38
35989;BME280;22064;42.672;23.282;2022-10-16T11:31:08;95447.69;;;16.50;49.07
35989;BME280;22064;42.672;23.282;2022-10-16T11:41:37;95448.75;;;16.59;50.69
35989;BME280;22064;42.672;23.282;2022-10-16T11:49:43;95453.31;;;16.89;50.95
35989;BME280;22064;42.672;23.282;2022-10-16T11:52:33;95453.06;;;16.96;50.01
35989;BME280;22064;42.672;23.282;2022-10-16T11:55:13;95446.75;;;16.97;50.41
35989;BME280;22064;42.672;23.282;2022-10-16T11:57:47;95450.97;;;16.98;49.31
35989;BME280;22064;42.672;23.282;2022-10-16T12:00:24;95449.13;;;16.98;48.74
35989;BME280;22064;42.672;23.282;2022-10-16T12:03:09;95450.97;;;17.08;47.21
35989;BME280;22064;42.672;23.282;2022-10-16T12:08:16;95445.44;;;17.15;48.06
35989;BME280;22064;42.672;23.282;2022-10-16T12:10:44;95446.50;;;17.34;48.34
35989;BME280;22064;42.672;23.282;2022-10-16T12:18:40;95454.38;;;17.34;49.03
35989;BME280;22064;42.672;23.282;2022-10-16T12:21:07;95453.34;;;17.40;49.08
35989;BME280;22064;42.672;23.282;2022-10-16T12:23:37;95460.44;;;17.50;49.27
35989;BME280;22064;42.672;23.282;2022-10-16T12:26:04;95457.00;;;17.60;48.64
35989;BME280;22064;42.672;23.282;2022-10-16T12:28:32;95453.28;;;17.76;48.77
35989;BME280;22064;42.672;23.282;2022-10-16T12:31:01;95452.47;;;17.75;48.23
35989;BME280;22064;42.672;23.282;2022-10-16T12:33:34;95452.47;;;17.75;49.29
35989;BME280;22064;42.672;23.282;2022-10-16T12:36:04;95456.97;;;17.90;49.32
35989;BME280;22064;42.672;23.282;2022-10-16T12:38:51;95455.69;;;17.83;47.72
35989;BME280;22064;42.672;23.282;2022-10-16T12:41:37;95448.81;;;17.76;47.51
35989;BME280;22064;42.672;23.282;2022-10-16T12:44:20;95450.91;;;17.74;47.72
35989;BME280;22064;42.672;23.282;2022-10-16T12:46:47;95457.25;;;17.89;47.84
35989;BME280;22064;42.672;23.282;2022-10-16T12:51:39;95456.22;;;17.80;48.33
35989;BME280;22064;42.672;23.282;2022-10-16T12:54:15;95458.06;;;17.79;48.51
35989;BME280;22064;42.672;23.282;2022-10-16T12:59:25;95466.47;;;17.81;47.83
35989;BME280;22064;42.672;23.282;2022-10-16T13:10:19;95467.94;;;18.23;44.44
35989;BME280;22064;42.672;23.282;2022-10-16T13:13:32;95467.81;;;18.54;44.30
35989;BME280;22064;42.672;23.282;2022-10-16T13:16:53;95466.81;;;18.44;44.43
35989;BME280;22064;42.672;23.282;2022-10-16T13:25:16;95467.44;;;18.70;45.56
35989;BME280;22064;42.672;23.282;2022-10-16T13:30:43;95470.06;;;19.20;42.41
35989;BME280;22064;42.672;23.282;2022-10-16T13:33:15;95462.34;;;19.29;41.78
35989;BME280;22064;42.672;23.282;2022-10-16T13:35:53;95466.47;;;19.40;42.57
35989;BME280;22064;42.672;23.282;2022-10-16T13:38:21;95471.31;;;19.28;42.27
35989;BME280;22064;42.672;23.282;2022-10-16T13:40:49;95469.59;;;19.47;42.21
35989;BME280;22064;42.672;23.282;2022-10-16T13:43:17;95468.63;;;19.38;41.94
35989;BME280;22064;42.672;23.282;2022-10-16T13:46:03;95479.09;;;19.48;42.26
35989;BME280;22064;42.672;23.282;2022-10-16T13:48:30;95473.66;;;19.64;41.42
35989;BME280;22064;42.672;23.282;2022-10-16T13:53:34;95474.09;;;20.72;39.44
35989;BME280;22064;42.672;23.282;2022-10-16T13:56:02;95471.88;;;20.98;38.76
35989;BME280;22064;42.672;23.282;2022-10-16T13:58:28;95468.63;;;21.20;37.81
35989;BME280;22064;42.672;23.282;2022-10-16T14:00:59;95465.75;;;21.68;37.11
35989;BME280;22064;42.672;23.282;2022-10-16T14:03:26;95468.28;;;22.33;36.10
35989;BME280;22064;42.672;23.282;2022-10-16T14:05:55;95480.53;;;22.02;36.49
35989;BME280;22064;42.672;23.282;2022-10-16T14:08:26;95473.88;;;21.90;36.56
35989;BME280;22064;42.672;23.282;2022-10-16T14:10:57;95477.28;;;22.05;36.19
35989;BME280;22064;42.672;23.282;2022-10-16T14:13:39;95485.19;;;22.24;35.86
35989;BME280;22064;42.672;23.282;2022-10-16T14:16:20;95479.13;;;22.87;34.85
35989;BME280;22064;42.672;23.282;2022-10-16T14:18:56;95470.38;;;23.23;33.99
35989;BME280;22064;42.672;23.282;2022-10-16T14:21:23;95481.69;;;21.35;36.02
35989;BME280;22064;42.672;23.282;2022-10-16T14:23:48;95481.06;;;20.44;37.74
35989;BME280;22064;42.672;23.282;2022-10-16T14:26:17;95480.28;;;19.32;39.65
35989;BME280;22064;42.672;23.282;2022-10-16T14:28:44;95484.66;;;18.58;40.07
35989;BME280;22064;42.672;23.282;2022-10-16T14:33:44;95494.09;;;18.04;41.46
35989;BME280;22064;42.672;23.282;2022-10-16T14:38:38;95496.25;;;17.41;42.42
35989;BME280;22064;42.672;23.282;2022-10-16T14:41:05;95499.38;;;17.12;43.13
35989;BME280;22064;42.672;23.282;2022-10-16T14:43:37;95502.00;;;17.12;43.39
35989;BME280;22064;42.672;23.282;2022-10-16T14:46:11;95504.63;;;16.92;43.86
35989;BME280;22064;42.672;23.282;2022-10-16T14:48:43;95501.72;;;16.88;44.48
35989;BME280;22064;42.672;23.282;2022-10-16T14:51:14;95501.50;;;17.46;43.75
35989;BME280;22064;42.672;23.282;2022-10-16T14:53:40;95509.34;;;19.61;39.83
35989;BME280;22064;42.672;23.282;2022-10-16T14:56:17;95500.22;;;21.16;36.64
35989;BME280;22064;42.672;23.282;2022-10-16T14:58:43;95501.91;;;21.26;35.70